Time;durP1;ratioP1;P1;durP2;ratioP2;P2;SDS_P1;SDS_P2;PMS_P1;PMS_P2;Temp;Humidity;BMP_temperature;BMP_pressure;BME280_temperature;BME280_humidity;BME280_pressure;Samples;Min_cycle;Max_cycle;Signal;HPM_P1;HPM_P2
2022/10/16 00:02:39;;;;;;;;;;;;;;;15.18;100.00;99035.47;8333667;28;19928;-75
2022/10/16 00:06:41;;;;;;;;;;;;;;;15.18;100.00;99032.84;8336876;28;19928;-75
2022/10/16 00:10:42;;;;;;;;;;;;;;;15.16;100.00;99030.28;8329452;28;19933;-75
2022/10/16 00:14:44;;;;;;;;;;;;;;;15.16;100.00;99037.25;8338028;28;19937;-76
2022/10/16 00:18:45;;;;;;;;;;;;;;;15.13;100.00;99043.44;8324287;28;19933;-75
2022/10/16 00:22:47;;;;;;;;;;;;;;;15.13;100.00;99035.59;8319771;28;20426;-75
2022/10/16 00:26:49;;;;;;;;;;;;;;;15.12;100.00;99036.50;8326404;28;19929;-76
2022/10/16 00:30:50;;;;;;;;;;;;;;;15.13;100.00;99040.81;8342031;28;20010;-76
2022/10/16 00:34:54;;;;;;;;;;;;;;;15.12;100.00;99041.72;8328942;28;19983;-76
2022/10/16 00:38:59;;;;;;;;;;;;;;;15.15;100.00;99044.25;8329989;28;19929;-76
2022/10/16 00:43:01;;;;;;;;;;;;;;;15.16;100.00;99045.09;8326059;28;19929;-76
2022/10/16 00:47:02;;;;;;;;;;;;;;;15.16;100.00;99042.50;8319762;28;19952;-76
2022/10/16 00:51:05;;;;;;;;;;;;;;;15.16;100.00;99045.09;8339251;28;19991;-76
2022/10/16 00:55:08;;;;;;;;;;;;;;;15.16;100.00;99050.34;8325041;28;19975;-75
2022/10/16 00:59:17;;;;;;;;;;;;;;;15.16;100.00;99058.19;8340437;28;19925;-75
2022/10/16 01:03:37;;;;;;;;;;;;;;;15.16;100.00;99059.03;8322343;28;19995;-76
2022/10/16 01:07:41;;;;;;;;;;;;;;;15.17;100.00;99045.06;8328406;28;19928;-75
2022/10/16 01:11:55;;;;;;;;;;;;;;;15.16;100.00;99055.56;8330558;28;19936;-75
2022/10/16 01:16:29;;;;;;;;;;;;;;;15.13;100.00;99056.53;8342838;28;19990;-76
2022/10/16 01:20:32;;;;;;;;;;;;;;;15.11;100.00;99079.25;8286169;28;19928;-76
2022/10/16 01:24:39;;;;;;;;;;;;;;;15.10;100.00;99075.78;8338517;28;19928;-76
2022/10/16 01:28:53;;;;;;;;;;;;;;;15.09;100.00;99068.81;8336991;28;20253;-76
2022/10/16 01:32:54;;;;;;;;;;;;;;;15.11;100.00;99055.72;8334992;28;19944;-75
2022/10/16 01:37:07;;;;;;;;;;;;;;;15.10;100.00;99056.59;8342436;28;19933;-76
2022/10/16 01:41:28;;;;;;;;;;;;;;;15.07;100.00;99067.97;8323914;28;19929;-75
2022/10/16 01:45:31;;;;;;;;;;;;;;;15.06;100.00;99081.09;8321171;28;19982;-75
2022/10/16 01:49:35;;;;;;;;;;;;;;;15.07;100.00;99072.34;8329629;28;19945;-75
2022/10/16 01:53:37;;;;;;;;;;;;;;;15.06;100.00;99078.50;8323864;28;19929;-75
2022/10/16 01:57:41;;;;;;;;;;;;;;;15.07;100.00;99082.81;8319358;28;19932;-75
2022/10/16 02:01:45;;;;;;;;;;;;;;;15.07;100.00;99072.34;8335231;28;19929;-75
2022/10/16 02:05:51;;;;;;;;;;;;;;;15.06;100.00;99070.66;8349381;28;20670;-75
2022/10/16 02:09:54;;;;;;;;;;;;;;;15.03;100.00;99065.50;8345589;28;20723;-75
2022/10/16 02:13:58;;;;;;;;;;;;;;;15.00;100.00;99073.44;8344586;28;19990;-75
2022/10/16 02:17:59;;;;;;;;;;;;;;;14.99;100.00;99082.19;8338824;28;20472;-75
2022/10/16 02:22:04;;;;;;;;;;;;;;;14.96;100.00;99075.28;8329455;28;20408;-75
2022/10/16 02:26:08;;;;;;;;;;;;;;;14.96;100.00;99077.91;8342475;28;21331;-75
2022/10/16 02:30:19;;;;;;;;;;;;;;;14.93;100.00;99074.53;8320978;28;19928;-75
2022/10/16 02:34:21;;;;;;;;;;;;;;;14.92;100.00;99084.13;8340139;28;20320;-75
2022/10/16 02:38:23;;;;;;;;;;;;;;;14.93;100.00;99079.75;8346472;28;19929;-76
2022/10/16 02:42:29;;;;;;;;;;;;;;;14.91;100.00;99081.56;8329556;28;19929;-75
2022/10/16 02:46:30;;;;;;;;;;;;;;;14.89;100.00;99093.78;8342736;28;19956;-75
2022/10/16 02:50:32;;;;;;;;;;;;;;;14.88;100.00;99087.69;8332531;28;19986;-75
2022/10/16 02:54:34;;;;;;;;;;;;;;;14.86;100.00;99083.41;8346087;28;19933;-75
2022/10/16 02:58:35;;;;;;;;;;;;;;;14.88;100.00;99107.75;8328175;28;20404;-75
2022/10/16 03:02:37;;;;;;;;;;;;;;;14.89;100.00;99088.53;8336087;28;19930;-75
2022/10/16 03:06:38;;;;;;;;;;;;;;;14.87;100.00;99106.88;8346961;28;19939;-75
2022/10/16 03:10:40;;;;;;;;;;;;;;;14.88;100.00;99099.91;8322570;28;19929;-75
2022/10/16 03:14:41;;;;;;;;;;;;;;;14.89;100.00;99094.63;8338963;28;20623;-76
2022/10/16 03:18:42;;;;;;;;;;;;;;;14.88;100.00;99098.16;8319668;28;20323;-76
2022/10/16 03:22:44;;;;;;;;;;;;;;;14.90;100.00;99093.75;8325317;28;19986;-75
2022/10/16 03:26:45;;;;;;;;;;;;;;;14.91;100.00;99097.22;8308916;28;19982;-76
2022/10/16 03:30:46;;;;;;;;;;;;;;;14.91;100.00;99097.22;8314388;28;19933;-76
2022/10/16 03:34:47;;;;;;;;;;;;;;;14.90;100.00;99099.00;8340675;28;19983;-76
2022/10/16 03:38:49;;;;;;;;;;;;;;;14.89;100.00;99089.41;8347269;28;19928;-76
2022/10/16 03:42:51;;;;;;;;;;;;;;;14.88;100.00;99092.91;8345926;28;20483;-76
2022/10/16 03:46:52;;;;;;;;;;;;;;;14.87;100.00;99091.19;8337641;28;19963;-76
2022/10/16 03:50:54;;;;;;;;;;;;;;;14.87;100.00;99083.38;8347666;28;20494;-76
2022/10/16 03:54:56;;;;;;;;;;;;;;;14.87;100.00;99074.66;8342814;28;19979;-76
2022/10/16 03:58:57;;;;;;;;;;;;;;;14.87;100.00;99082.50;8327680;28;19928;-76
2022/10/16 04:02:58;;;;;;;;;;;;;;;14.86;100.00;99088.63;8336386;28;19939;-76
2022/10/16 04:07:00;;;;;;;;;;;;;;;14.82;100.00;99101.78;8348703;28;19929;-76
2022/10/16 04:11:01;;;;;;;;;;;;;;;14.83;100.00;99097.41;8339885;28;19929;-76
2022/10/16 04:15:02;;;;;;;;;;;;;;;14.81;100.00;99102.69;8316368;28;20320;-76
2022/10/16 04:19:04;;;;;;;;;;;;;;;14.84;100.00;99100.88;8342120;28;19929;-76
2022/10/16 04:23:05;;;;;;;;;;;;;;;14.81;100.00;99113.16;8332212;28;20067;-76
2022/10/16 04:27:07;;;;;;;;;;;;;;;14.81;100.00;99104.44;8352292;28;19940;-76
2022/10/16 04:31:08;;;;;;;;;;;;;;;14.82;100.00;99114.00;8343290;28;20323;-75
2022/10/16 04:35:09;;;;;;;;;;;;;;;14.81;100.00;99112.28;8339357;28;19932;-75
2022/10/16 04:39:11;;;;;;;;;;;;;;;14.80;100.00;99114.03;8346471;28;19963;-76
2022/10/16 04:43:12;;;;;;;;;;;;;;;14.81;100.00;99112.28;8317110;28;19929;-76
2022/10/16 04:47:13;;;;;;;;;;;;;;;14.80;100.00;99108.81;8304544;28;20557;-76
2022/10/16 04:51:15;;;;;;;;;;;;;;;14.80;100.00;99089.66;8344869;28;19936;-76
2022/10/16 04:55:16;;;;;;;;;;;;;;;14.79;100.00;99107.09;8316445;28;19990;-76
2022/10/16 04:59:18;;;;;;;;;;;;;;;14.77;100.00;99111.53;8326610;28;19936;-76
2022/10/16 05:03:19;;;;;;;;;;;;;;;14.76;100.00;99106.34;8334768;28;19928;-76
2022/10/16 05:07:21;;;;;;;;;;;;;;;14.74;100.00;99114.22;8343835;28;19960;-76
2022/10/16 05:11:22;;;;;;;;;;;;;;;14.73;100.00;99115.13;8330196;28;20052;-76
2022/10/16 05:15:24;;;;;;;;;;;;;;;14.74;100.00;99113.34;8325956;28;19940;-76
2022/10/16 05:19:26;;;;;;;;;;;;;;;14.75;100.00;99108.09;8330840;28;19952;-76
2022/10/16 05:23:29;;;;;;;;;;;;;;;14.77;100.00;99115.88;8330416;28;20420;-76
2022/10/16 05:27:30;;;;;;;;;;;;;;;14.77;100.00;99106.28;8325885;28;20006;-76
2022/10/16 05:31:31;;;;;;;;;;;;;;;14.78;100.00;99107.16;8338333;28;19955;-76
2022/10/16 05:35:33;;;;;;;;;;;;;;;14.79;100.00;99124.53;8293901;28;20046;-76
2022/10/16 05:39:36;;;;;;;;;;;;;;;14.77;100.00;99132.44;8264842;28;19930;-76
2022/10/16 05:43:37;;;;;;;;;;;;;;;14.77;100.00;99134.19;8280438;28;20490;-76
2022/10/16 05:47:39;;;;;;;;;;;;;;;14.78;100.00;99133.28;8270003;28;19952;-76
2022/10/16 05:51:41;;;;;;;;;;;;;;;14.78;100.00;99117.59;8272918;28;20062;-76
2022/10/16 05:55:42;;;;;;;;;;;;;;;14.78;100.00;99113.22;8257613;28;19984;-76
2022/10/16 05:59:43;;;;;;;;;;;;;;;14.78;100.00;99128.06;8279625;28;19930;-77
2022/10/16 06:03:45;;;;;;;;;;;;;;;14.76;100.00;99129.84;8271592;28;20358;-76
2022/10/16 06:07:46;;;;;;;;;;;;;;;14.75;100.00;99129.00;8279166;28;19933;-77
2022/10/16 06:11:47;;;;;;;;;;;;;;;14.76;100.00;99128.09;8274729;28;20426;-76
2022/10/16 06:15:49;;;;;;;;;;;;;;;14.77;100.00;99132.44;8272853;28;19933;-76
2022/10/16 06:19:50;;;;;;;;;;;;;;;14.77;100.00;99132.44;8279728;28;20020;-76
2022/10/16 06:23:52;;;;;;;;;;;;;;;14.75;100.00;99136.84;8263267;28;20460;-76
2022/10/16 06:27:54;;;;;;;;;;;;;;;14.77;100.00;99142.03;8269991;28;19996;-76
2022/10/16 06:31:57;;;;;;;;;;;;;;;14.76;100.00;99141.16;8265529;28;19929;-76
2022/10/16 06:36:05;;;;;;;;;;;;;;;14.74;100.00;99157.78;8293911;28;19983;-76
2022/10/16 06:40:07;;;;;;;;;;;;;;;14.72;100.00;99167.41;8304736;28;19952;-76
2022/10/16 06:44:10;;;;;;;;;;;;;;;14.74;100.00;99165.63;8290580;28;20011;-76
2022/10/16 06:48:11;;;;;;;;;;;;;;;14.78;100.00;99185.56;8300267;28;20603;-76
2022/10/16 06:52:14;;;;;;;;;;;;;;;14.80;100.00;99194.22;8321225;28;19929;-76
2022/10/16 06:56:20;;;;;;;;;;;;;;;14.87;100.00;99187.06;8305878;28;19929;-76
2022/10/16 07:00:21;;;;;;;;;;;;;;;14.94;100.00;99207.81;8304744;28;20844;-76
2022/10/16 07:04:26;;;;;;;;;;;;;;;15.01;100.00;99222.44;8317768;28;19929;-76
2022/10/16 07:08:27;;;;;;;;;;;;;;;15.07;100.00;99219.66;8314551;28;19933;-76
2022/10/16 07:12:28;;;;;;;;;;;;;;;15.11;100.00;99215.22;8314457;28;19983;-76
2022/10/16 07:16:31;;;;;;;;;;;;;;;15.15;100.00;99222.09;8303584;28;19933;-76
2022/10/16 07:20:32;;;;;;;;;;;;;;;15.21;100.00;99237.63;8311791;28;19999;-76
2022/10/16 07:24:34;;;;;;;;;;;;;;;15.28;100.00;99254.03;8313965;28;19936;-76
2022/10/16 07:28:35;;;;;;;;;;;;;;;15.36;100.00;99252.94;8303252;28;19960;-76
2022/10/16 07:32:36;;;;;;;;;;;;;;;15.45;100.00;99262.31;8303922;28;20031;-76
2022/10/16 07:36:38;;;;;;;;;;;;;;;15.54;100.00;99262.06;8337323;28;19925;-76
2022/10/16 07:40:39;;;;;;;;;;;;;;;15.61;100.00;99268.00;8335428;28;19929;-76
2022/10/16 07:44:41;;;;;;;;;;;;;;;15.68;100.00;99274.81;8350706;28;19995;-77
2022/10/16 07:48:45;;;;;;;;;;;;;;;15.75;100.00;99263.25;8340113;28;19990;-77
2022/10/16 07:52:46;;;;;;;;;;;;;;;15.85;100.00;99266.50;8329392;28;19941;-77
2022/10/16 07:56:48;;;;;;;;;;;;;;;15.93;100.00;99288.06;8323697;28;19928;-76
2022/10/16 08:00:49;;;;;;;;;;;;;;;15.97;100.00;99294.94;8338777;28;19928;-76
2022/10/16 08:04:50;;;;;;;;;;;;;;;15.95;100.00;99305.47;8330810;28;20346;-75
2022/10/16 08:08:52;;;;;;;;;;;;;;;16.05;100.00;99308.69;8343768;28;20481;-76
2022/10/16 08:12:53;;;;;;;;;;;;;;;16.16;100.00;99306.66;8347690;28;19929;-76
2022/10/16 08:16:54;;;;;;;;;;;;;;;16.27;100.00;99314.19;8326528;28;20715;-76
2022/10/16 08:20:57;;;;;;;;;;;;;;;16.41;100.00;99311.16;8339427;28;19936;-77
2022/10/16 08:24:58;;;;;;;;;;;;;;;16.56;100.00;99310.72;8329778;28;19929;-77
2022/10/16 08:29:00;;;;;;;;;;;;;;;16.76;100.00;99323.25;8316178;28;19939;-77
2022/10/16 08:33:02;;;;;;;;;;;;;;;16.95;100.00;99316.53;8314310;28;19956;-76
2022/10/16 08:37:03;;;;;;;;;;;;;;;17.08;100.00;99328.34;8292996;28;19929;-76
2022/10/16 08:41:32;;;;;;;;;;;;;;;17.17;100.00;99338.53;8305766;28;19959;-76
2022/10/16 08:45:39;;;;;;;;;;;;;;;17.27;100.00;99348.75;8322968;28;20243;-76
2022/10/16 08:49:41;;;;;;;;;;;;;;;17.33;100.00;99349.41;8327757;28;19929;-76
2022/10/16 08:53:51;;;;;;;;;;;;;;;17.38;100.00;99355.34;8307738;28;19937;-76
2022/10/16 08:57:53;;;;;;;;;;;;;;;17.43;100.00;99349.97;8309563;28;19929;-76
2022/10/16 09:01:54;;;;;;;;;;;;;;;17.73;100.00;99348.09;8307902;28;19929;-76
2022/10/16 09:06:02;;;;;;;;;;;;;;;18.39;100.00;99347.50;8296728;28;19936;-76
2022/10/16 09:10:12;;;;;;;;;;;;;;;18.76;96.04;99342.66;8311629;28;19963;-77
2022/10/16 09:14:36;;;;;;;;;;;;;;;19.06;93.59;99349.38;8312117;28;20010;-77
2022/10/16 09:18:37;;;;;;;;;;;;;;;19.11;91.41;99352.66;8320848;28;20338;-77
2022/10/16 09:22:39;;;;;;;;;;;;;;;18.98;90.55;99365.44;8316919;28;19933;-77
2022/10/16 09:26:42;;;;;;;;;;;;;;;18.87;92.03;99358.91;8284147;28;19935;-77
2022/10/16 09:30:44;;;;;;;;;;;;;;;19.09;92.81;99358.91;8291842;28;19937;-77
2022/10/16 09:34:56;;;;;;;;;;;;;;;19.43;91.14;99372.44;8316718;28;19936;-77
2022/10/16 09:39:09;;;;;;;;;;;;;;;19.50;88.85;99379.16;8331002;28;19994;-77
2022/10/16 09:43:16;;;;;;;;;;;;;;;19.44;88.80;99365.38;8341104;28;20301;-77
2022/10/16 09:47:20;;;;;;;;;;;;;;;19.49;88.57;99363.41;8340533;28;19937;-77
2022/10/16 09:51:37;;;;;;;;;;;;;;;19.69;88.32;99368.75;8325044;28;19929;-77
2022/10/16 09:55:52;;;;;;;;;;;;;;;19.74;87.57;99371.16;8312647;28;19932;-77
2022/10/16 09:59:55;;;;;;;;;;;;;;;19.58;87.84;99371.84;8324708;28;19932;-77
2022/10/16 10:04:00;;;;;;;;;;;;;;;19.42;88.81;99377.75;8318884;28;19940;-77
2022/10/16 10:08:06;;;;;;;;;;;;;;;19.31;89.36;99372.91;8320194;28;19929;-77
2022/10/16 10:12:37;;;;;;;;;;;;;;;19.46;89.84;99377.56;8329581;28;20039;-77
2022/10/16 10:16:38;;;;;;;;;;;;;;;19.71;89.49;99379.22;8302258;28;20003;-77
2022/10/16 10:20:40;;;;;;;;;;;;;;;19.80;87.30;99384.09;8339261;28;20265;-77
2022/10/16 10:24:41;;;;;;;;;;;;;;;19.71;86.18;99381.84;8325670;28;20365;-77
2022/10/16 10:28:49;;;;;;;;;;;;;;;19.58;86.18;99385.00;8330891;28;19929;-77
2022/10/16 10:32:51;;;;;;;;;;;;;;;19.35;87.41;99389.44;8321868;28;19939;-77
2022/10/16 10:36:58;;;;;;;;;;;;;;;19.10;88.00;99387.78;8325038;28;20314;-78
2022/10/16 10:41:02;;;;;;;;;;;;;;;19.02;89.83;99393.34;8301762;28;19929;-78
2022/10/16 10:45:04;;;;;;;;;;;;;;;19.05;90.23;99383.63;8285969;28;19929;-78
2022/10/16 10:49:05;;;;;;;;;;;;;;;19.07;91.03;99382.66;8309731;28;19995;-76
2022/10/16 10:53:21;;;;;;;;;;;;;;;19.15;91.71;99384.97;8315723;28;19960;-77
2022/10/16 10:57:39;;;;;;;;;;;;;;;19.14;90.84;99392.00;8305781;28;20061;-77
2022/10/16 11:01:49;;;;;;;;;;;;;;;19.07;89.77;99397.59;8316952;28;19925;-76
2022/10/16 11:06:09;;;;;;;;;;;;;;;18.97;90.12;99389.19;8310067;28;19968;-78
2022/10/16 11:10:21;;;;;;;;;;;;;;;19.03;91.45;99394.22;8312666;28;19987;-77
2022/10/16 11:14:31;;;;;;;;;;;;;;;19.07;90.78;99406.34;8311363;28;19929;-77
2022/10/16 11:18:40;;;;;;;;;;;;;;;19.04;90.05;99397.72;8309260;28;19937;-76
2022/10/16 11:22:41;;;;;;;;;;;;;;;19.01;90.15;99394.25;8307198;28;19933;-77
2022/10/16 11:26:43;;;;;;;;;;;;;;;18.95;90.59;99394.50;8307717;28;19929;-77
2022/10/16 11:31:00;;;;;;;;;;;;;;;18.86;91.09;99384.34;8302664;28;19929;-77
2022/10/16 11:35:15;;;;;;;;;;;;;;;18.84;92.18;99380.88;8317440;28;20377;-77
2022/10/16 11:39:21;;;;;;;;;;;;;;;18.86;92.74;99373.81;8340342;28;20363;-76
2022/10/16 11:43:28;;;;;;;;;;;;;;;18.95;93.56;99372.59;8340908;28;20336;-77
2022/10/16 11:47:30;;;;;;;;;;;;;;;18.97;93.39;99378.66;8335743;28;19944;-76
2022/10/16 11:51:58;;;;;;;;;;;;;;;18.94;93.28;99370.88;8339974;28;19929;-77
2022/10/16 11:55:59;;;;;;;;;;;;;;;18.92;93.06;99354.31;8331545;28;20555;-77
2022/10/16 12:00:03;;;;;;;;;;;;;;;18.97;93.03;99350.56;8343197;28;19940;-77
2022/10/16 12:04:25;;;;;;;;;;;;;;;18.99;92.30;99351.34;8329985;28;19994;-77
2022/10/16 12:08:26;;;;;;;;;;;;;;;19.01;92.49;99354.78;8311251;28;19928;-77
2022/10/16 12:12:34;;;;;;;;;;;;;;;19.06;92.92;99356.41;8348968;28;19982;-77
2022/10/16 12:16:38;;;;;;;;;;;;;;;19.12;93.69;99341.22;8322670;28;19928;-77
2022/10/16 12:20:45;;;;;;;;;;;;;;;19.19;93.19;99342.66;8324574;28;19925;-77
2022/10/16 12:24:50;;;;;;;;;;;;;;;19.29;92.55;99344.03;8316034;28;19925;-77
2022/10/16 12:28:52;;;;;;;;;;;;;;;19.45;91.27;99349.53;8326634;28;20002;-77
2022/10/16 12:32:55;;;;;;;;;;;;;;;19.53;90.77;99350.03;8333461;28;19929;-77
2022/10/16 12:37:08;;;;;;;;;;;;;;;19.65;90.78;99353.13;8337550;28;19928;-77
2022/10/16 12:41:10;;;;;;;;;;;;;;;19.75;91.28;99349.16;8344099;28;20456;-77
2022/10/16 12:45:31;;;;;;;;;;;;;;;19.84;90.18;99346.16;8308985;28;19929;-77
2022/10/16 12:49:38;;;;;;;;;;;;;;;19.91;88.92;99340.53;8340543;28;19987;-77
2022/10/16 12:53:39;;;;;;;;;;;;;;;19.90;87.61;99346.75;8329221;28;20420;-77
2022/10/16 12:57:44;;;;;;;;;;;;;;;19.90;87.66;99357.28;8313257;28;20002;-77
2022/10/16 13:01:51;;;;;;;;;;;;;;;19.78;85.76;99362.25;8339561;28;19963;-77
2022/10/16 13:06:11;;;;;;;;;;;;;;;19.76;86.07;99361.47;8342481;28;19952;-77
2022/10/16 13:10:28;;;;;;;;;;;;;;;19.82;86.34;99355.91;8341180;28;19928;-77
2022/10/16 13:14:43;;;;;;;;;;;;;;;19.87;84.12;99361.84;8348690;28;19948;-77
2022/10/16 13:19:11;;;;;;;;;;;;;;;19.92;84.60;99363.34;8319827;28;19987;-77
2022/10/16 13:23:12;;;;;;;;;;;;;;;19.95;82.90;99364.16;8327103;28;19962;-77
2022/10/16 13:27:21;;;;;;;;;;;;;;;19.94;82.76;99360.66;8343391;28;19928;-77
2022/10/16 13:31:24;;;;;;;;;;;;;;;19.98;83.69;99356.13;8313789;28;19929;-77
2022/10/16 13:35:27;;;;;;;;;;;;;;;20.04;83.04;99347.94;8323592;28;20432;-77
2022/10/16 13:39:29;;;;;;;;;;;;;;;20.16;83.06;99353.53;8332602;28;19986;-77
2022/10/16 13:43:39;;;;;;;;;;;;;;;20.34;83.11;99351.00;8331431;28;19929;-77
2022/10/16 13:47:40;;;;;;;;;;;;;;;20.59;82.13;99341.06;8324092;28;19928;-77
2022/10/16 13:51:41;;;;;;;;;;;;;;;20.72;82.42;99342.22;8347827;28;19929;-78
2022/10/16 13:55:43;;;;;;;;;;;;;;;20.76;81.37;99342.94;8314254;28;20706;-77
2022/10/16 13:59:44;;;;;;;;;;;;;;;20.77;81.24;99334.09;8320655;28;19932;-77
2022/10/16 14:03:46;;;;;;;;;;;;;;;20.75;81.02;99333.31;8307638;28;19936;-77
2022/10/16 14:07:49;;;;;;;;;;;;;;;20.67;79.82;99338.09;8347238;28;20285;-77
2022/10/16 14:11:53;;;;;;;;;;;;;;;20.63;80.09;99339.13;8326213;28;19929;-78
2022/10/16 14:15:58;;;;;;;;;;;;;;;20.44;79.13;99334.72;8310888;28;20002;-78
2022/10/16 14:20:03;;;;;;;;;;;;;;;20.32;79.33;99334.41;8336583;28;20373;-77
2022/10/16 14:24:22;;;;;;;;;;;;;;;20.20;80.33;99335.78;8346073;28;19940;-78
2022/10/16 14:28:23;;;;;;;;;;;;;;;20.16;80.26;99337.72;8347248;28;19932;-77
2022/10/16 14:32:25;;;;;;;;;;;;;;;20.17;82.13;99338.56;8340064;28;19929;-77
2022/10/16 14:36:27;;;;;;;;;;;;;;;20.14;82.38;99342.19;8301667;28;19987;-77
2022/10/16 14:40:34;;;;;;;;;;;;;;;20.15;82.80;99346.53;8313729;28;19991;-77
2022/10/16 14:44:36;;;;;;;;;;;;;;;20.12;81.97;99343.19;8307992;28;19975;-77
2022/10/16 14:48:40;;;;;;;;;;;;;;;20.09;83.60;99349.44;8299839;28;19987;-77
2022/10/16 14:52:43;;;;;;;;;;;;;;;20.07;82.83;99346.00;8323166;28;19979;-78
2022/10/16 14:56:46;;;;;;;;;;;;;;;20.01;83.94;99338.38;8310627;28;19937;-77
2022/10/16 15:00:48;;;;;;;;;;;;;;;19.98;84.14;99343.78;8299901;28;19928;-77
2022/10/16 15:04:50;;;;;;;;;;;;;;;19.98;83.92;99341.16;8288715;28;19941;-77
2022/10/16 15:08:51;;;;;;;;;;;;;;;20.00;85.05;99341.94;8306550;28;19960;-78
2022/10/16 15:12:53;;;;;;;;;;;;;;;20.06;83.27;99341.66;8295348;28;20008;-77
2022/10/16 15:16:54;;;;;;;;;;;;;;;20.23;83.18;99338.28;8299724;28;19933;-78
2022/10/16 15:20:56;;;;;;;;;;;;;;;20.33;82.02;99328.19;8313784;28;19928;-78
2022/10/16 15:24:57;;;;;;;;;;;;;;;20.40;81.20;99335.75;8311225;28;19929;-78
2022/10/16 15:28:58;;;;;;;;;;;;;;;20.25;80.30;99317.13;8305597;28;20409;-77
2022/10/16 15:32:59;;;;;;;;;;;;;;;20.20;80.88;99327.88;8291497;28;20010;-77
2022/10/16 15:37:04;;;;;;;;;;;;;;;20.05;80.54;99325.91;8329351;28;19937;-77
2022/10/16 15:41:05;;;;;;;;;;;;;;;19.90;81.72;99327.44;8313205;28;19948;-77
2022/10/16 15:45:08;;;;;;;;;;;;;;;19.83;81.13;99328.63;8309347;28;19941;-78
2022/10/16 15:49:09;;;;;;;;;;;;;;;19.67;83.17;99325.81;8318681;28;19929;-77
2022/10/16 15:53:11;;;;;;;;;;;;;;;19.49;84.26;99319.50;8318262;28;20012;-77
2022/10/16 15:57:12;;;;;;;;;;;;;;;19.29;86.12;99325.59;8311659;28;19937;-77
2022/10/16 16:01:14;;;;;;;;;;;;;;;19.10;87.79;99327.25;8316974;28;19929;-77
2022/10/16 16:05:15;;;;;;;;;;;;;;;18.90;88.97;99319.31;8297012;28;19929;-77
2022/10/16 16:09:16;;;;;;;;;;;;;;;18.73;90.20;99329.63;8304408;28;19991;-77
2022/10/16 16:13:17;;;;;;;;;;;;;;;18.47;91.24;99320.91;8318832;28;20448;-77
2022/10/16 16:17:19;;;;;;;;;;;;;;;18.31;91.88;99323.28;8311523;28;19979;-77
2022/10/16 16:21:20;;;;;;;;;;;;;;;18.16;92.90;99326.47;8298856;28;19933;-77
2022/10/16 16:25:22;;;;;;;;;;;;;;;18.03;93.58;99338.31;8321962;28;20371;-77
2022/10/16 16:29:23;;;;;;;;;;;;;;;17.84;94.30;99334.63;8313571;28;19929;-77
2022/10/16 16:33:24;;;;;;;;;;;;;;;17.64;95.13;99333.50;8315438;28;19929;-78
2022/10/16 16:37:25;;;;;;;;;;;;;;;17.48;95.66;99338.41;8354792;28;19951;-79
2022/10/16 16:41:29;;;;;;;;;;;;;;;17.33;96.27;99352.03;8337968;28;20012;-78
2022/10/16 16:45:34;;;;;;;;;;;;;;;17.17;96.72;99358.69;8341332;28;20741;-78
2022/10/16 16:49:36;;;;;;;;;;;;;;;17.01;97.28;99355.69;8335675;28;20022;-78
2022/10/16 16:53:37;;;;;;;;;;;;;;;16.89;98.17;99361.31;8329954;28;20266;-78
2022/10/16 16:57:38;;;;;;;;;;;;;;;16.79;98.87;99367.72;8314522;28;19929;-78
2022/10/16 17:01:40;;;;;;;;;;;;;;;16.68;99.13;99380.28;8342391;28;19939;-77
2022/10/16 17:05:41;;;;;;;;;;;;;;;16.56;99.40;99384.97;8336500;28;20015;-77
2022/10/16 17:09:43;;;;;;;;;;;;;;;16.49;99.95;99393.91;8345947;28;19928;-77
2022/10/16 17:13:44;;;;;;;;;;;;;;;16.41;100.00;99392.41;8328235;28;19925;-77
2022/10/16 17:17:46;;;;;;;;;;;;;;;16.33;100.00;99397.84;8318890;28;19967;-77
2022/10/16 17:21:48;;;;;;;;;;;;;;;16.25;100.00;99399.84;8324185;28;19929;-77
2022/10/16 17:25:49;;;;;;;;;;;;;;;16.18;100.00;99401.78;8350658;28;19972;-77
2022/10/16 17:29:51;;;;;;;;;;;;;;;16.11;100.00;99418.53;8351095;28;19928;-77
2022/10/16 17:33:52;;;;;;;;;;;;;;;16.02;100.00;99408.31;8340426;28;19929;-77
2022/10/16 17:37:53;;;;;;;;;;;;;;;15.94;100.00;99421.59;8349551;28;19932;-77
2022/10/16 17:41:55;;;;;;;;;;;;;;;15.90;100.00;99419.09;8337627;28;19929;-77
2022/10/16 17:45:56;;;;;;;;;;;;;;;15.82;100.00;99418.44;8324629;28;20396;-76
2022/10/16 17:49:58;;;;;;;;;;;;;;;15.74;100.00;99426.47;8321250;28;19928;-77
2022/10/16 17:54:00;;;;;;;;;;;;;;;15.68;100.00;99429.25;8312759;28;19933;-76
2022/10/16 17:58:01;;;;;;;;;;;;;;;15.62;100.00;99434.66;8327984;28;19932;-77
2022/10/16 18:02:03;;;;;;;;;;;;;;;15.58;100.00;99432.94;8317000;28;19996;-77
2022/10/16 18:06:04;;;;;;;;;;;;;;;15.53;100.00;99440.06;8340237;28;20771;-76
2022/10/16 18:10:08;;;;;;;;;;;;;;;15.49;100.00;99441.03;8327855;28;19987;-77
2022/10/16 18:14:13;;;;;;;;;;;;;;;15.45;100.00;99450.72;8322093;28;19937;-76
2022/10/16 18:18:15;;;;;;;;;;;;;;;15.39;100.00;99454.31;8321963;28;19936;-77
2022/10/16 18:22:16;;;;;;;;;;;;;;;15.37;100.00;99460.47;8341880;28;19954;-77
2022/10/16 18:26:18;;;;;;;;;;;;;;;15.31;100.00;99461.50;8328723;28;20265;-77
2022/10/16 18:30:20;;;;;;;;;;;;;;;15.27;100.00;99459.84;8324325;28;20283;-76
2022/10/16 18:34:21;;;;;;;;;;;;;;;15.23;100.00;99467.78;8326410;28;19956;-77
2022/10/16 18:38:23;;;;;;;;;;;;;;;15.18;100.00;99464.41;8328671;28;20016;-76
2022/10/16 18:42:24;;;;;;;;;;;;;;;15.12;100.00;99460.19;8349766;28;19929;-76
2022/10/16 18:46:25;;;;;;;;;;;;;;;15.08;100.00;99469.84;8336980;28;19928;-76
2022/10/16 18:50:27;;;;;;;;;;;;;;;15.03;100.00;99471.69;8333306;28;20011;-76
2022/10/16 18:54:29;;;;;;;;;;;;;;;14.98;100.00;99475.28;8342798;28;19933;-76
2022/10/16 18:58:30;;;;;;;;;;;;;;;14.94;100.00;99476.25;8335828;28;19929;-77
2022/10/16 19:02:32;;;;;;;;;;;;;;;14.88;100.00;99477.22;8323554;28;19932;-76
2022/10/16 19:06:43;;;;;;;;;;;;;;;14.82;100.00;99485.19;8327604;28;19929;-77
2022/10/16 19:10:45;;;;;;;;;;;;;;;14.76;100.00;99474.88;8326339;28;19933;-76
2022/10/16 19:14:47;;;;;;;;;;;;;;;14.69;100.00;99479.34;8353597;28;19955;-77
2022/10/16 19:18:50;;;;;;;;;;;;;;;14.67;100.00;99493.34;8345079;28;19924;-77
2022/10/16 19:22:55;;;;;;;;;;;;;;;14.65;100.00;99493.38;8321592;28;19933;-77
2022/10/16 19:26:56;;;;;;;;;;;;;;;14.62;100.00;99496.03;8341095;28;19991;-77
2022/10/16 19:31:01;;;;;;;;;;;;;;;14.60;100.00;99491.75;8316488;28;23140;-77
2022/10/16 19:35:03;;;;;;;;;;;;;;;14.57;100.00;99497.03;8321857;28;20566;-76
2022/10/16 19:39:05;;;;;;;;;;;;;;;14.54;100.00;99492.69;8309395;28;19943;-77
2022/10/16 19:43:07;;;;;;;;;;;;;;;14.49;100.00;99497.16;8324105;28;19929;-76
2022/10/16 19:47:08;;;;;;;;;;;;;;;14.43;100.00;99487.69;8314399;28;19935;-76
2022/10/16 19:51:12;;;;;;;;;;;;;;;14.36;100.00;99493.00;8325942;28;19928;-77
2022/10/16 19:55:13;;;;;;;;;;;;;;;14.29;100.00;99494.88;8320007;28;19937;-76
2022/10/16 19:59:17;;;;;;;;;;;;;;;14.23;100.00;99502.84;8329818;28;19932;-76
2022/10/16 20:03:19;;;;;;;;;;;;;;;14.19;100.00;99511.63;8337036;28;20003;-76
2022/10/16 20:07:21;;;;;;;;;;;;;;;14.15;100.00;99517.75;8310644;28;19929;-77
2022/10/16 20:11:24;;;;;;;;;;;;;;;14.11;100.00;99516.94;8324931;28;19929;-77
2022/10/16 20:15:26;;;;;;;;;;;;;;;14.10;100.00;99520.44;8343586;28;20350;-77
2022/10/16 20:19:27;;;;;;;;;;;;;;;14.08;100.00;99527.44;8303368;28;19936;-77
2022/10/16 20:23:28;;;;;;;;;;;;;;;14.03;100.00;99531.91;8342727;28;20656;-76
2022/10/16 20:27:30;;;;;;;;;;;;;;;13.98;100.00;99533.69;8331297;28;19929;-76
2022/10/16 20:31:32;;;;;;;;;;;;;;;13.94;100.00;99524.19;8342942;28;19986;-76
2022/10/16 20:35:35;;;;;;;;;;;;;;;13.89;100.00;99528.63;8315411;28;19937;-77
2022/10/16 20:39:36;;;;;;;;;;;;;;;13.84;100.00;99531.31;8307780;28;19956;-78
2022/10/16 20:43:39;;;;;;;;;;;;;;;13.82;100.00;99535.72;8314004;28;19937;-78
2022/10/16 20:47:40;;;;;;;;;;;;;;;13.76;100.00;99541.00;8324342;28;19944;-76
2022/10/16 20:51:42;;;;;;;;;;;;;;;13.70;100.00;99541.09;8311298;28;20409;-77
2022/10/16 20:55:44;;;;;;;;;;;;;;;13.67;100.00;99528.09;8305231;28;20263;-76
2022/10/16 20:59:47;;;;;;;;;;;;;;;13.63;100.00;99538.59;8332096;28;19995;-76